createdAt,value
2019-03-26T00:00:33.129Z,0.00
2019-03-26T00:01:33.117Z,0.00
2019-03-26T00:02:33.114Z,0.00
2019-03-26T00:03:33.095Z,0.00
2019-03-26T00:04:33.085Z,0.00
2019-03-26T00:05:33.074Z,0.00
2019-03-26T00:06:33.062Z,0.00
2019-03-26T00:07:33.054Z,0.00
2019-03-26T00:08:33.052Z,0.00
2019-03-26T00:09:33.031Z,0.00
2019-03-26T00:10:33.022Z,0.00
2019-03-26T00:11:33.012Z,0.00
2019-03-26T00:12:33.000Z,0.00
2019-03-26T00:13:32.992Z,0.00
2019-03-26T00:14:32.979Z,0.00
2019-03-26T00:15:32.971Z,0.00
2019-03-26T00:16:32.957Z,0.00
2019-03-26T00:17:32.946Z,0.00
2019-03-26T00:18:32.937Z,0.00
2019-03-26T00:19:32.925Z,0.00
2019-03-26T00:20:32.913Z,0.00
2019-03-26T00:21:32.903Z,0.00
2019-03-26T00:22:32.896Z,0.00
2019-03-26T00:23:32.883Z,0.00
2019-03-26T00:24:32.872Z,0.00
2019-03-26T00:25:32.861Z,0.00
2019-03-26T00:26:32.850Z,0.00
2019-03-26T00:27:32.838Z,0.00
2019-03-26T00:28:32.837Z,0.00
2019-03-26T00:29:32.817Z,0.00
2019-03-26T00:30:32.808Z,0.00
2019-03-26T00:31:32.807Z,0.00
2019-03-26T00:32:32.786Z,0.00
2019-03-26T00:33:36.718Z,0.00
2019-03-26T00:34:32.764Z,0.00
2019-03-26T00:35:32.755Z,0.00
2019-03-26T00:36:32.743Z,0.00
2019-03-26T00:37:32.737Z,0.00
2019-03-26T00:38:32.768Z,0.00
2019-03-26T00:39:32.713Z,0.00
2019-03-26T00:40:32.699Z,0.00
2019-03-26T00:41:32.691Z,0.00
2019-03-26T00:42:32.679Z,0.00
2019-03-26T00:43:32.675Z,0.00
2019-03-26T00:44:32.674Z,0.00
2019-03-26T00:45:32.648Z,0.00
2019-03-26T00:46:32.637Z,0.00
2019-03-26T00:47:32.631Z,0.00
2019-03-26T00:48:32.635Z,0.00
2019-03-26T00:49:32.612Z,0.00
2019-03-26T00:50:32.595Z,0.00
2019-03-26T00:51:32.594Z,0.00
2019-03-26T00:52:32.571Z,0.00
2019-03-26T00:53:32.564Z,0.00
2019-03-26T00:54:32.554Z,0.00
2019-03-26T00:55:32.556Z,0.00
2019-03-26T00:56:32.529Z,0.00
2019-03-26T00:57:32.521Z,0.00
2019-03-26T00:58:32.510Z,0.00
2019-03-26T00:59:32.502Z,0.00
2019-03-26T01:00:32.486Z,0.00
2019-03-26T01:01:32.482Z,0.00
2019-03-26T01:02:32.466Z,0.00
2019-03-26T01:03:32.459Z,0.00
2019-03-26T01:04:33.401Z,0.00
2019-03-26T01:05:32.433Z,0.00
2019-03-26T01:06:32.426Z,0.00
2019-03-26T01:07:32.415Z,0.00
2019-03-26T01:08:32.445Z,0.00
2019-03-26T01:09:32.389Z,0.00
2019-03-26T01:10:32.378Z,0.00
2019-03-26T01:11:32.373Z,0.00
2019-03-26T01:12:32.359Z,0.00
2019-03-26T01:13:32.347Z,0.00
2019-03-26T01:14:32.337Z,0.00
2019-03-26T01:15:32.325Z,0.00
2019-03-26T01:16:32.385Z,0.00
2019-03-26T01:17:32.308Z,0.00
2019-03-26T01:18:32.369Z,0.00
2019-03-26T01:19:32.282Z,0.00
2019-03-26T01:20:32.272Z,0.00
2019-03-26T01:21:32.326Z,0.00
2019-03-26T01:22:32.250Z,0.00
2019-03-26T01:23:32.242Z,0.00
2019-03-26T01:24:32.234Z,0.00
2019-03-26T01:25:32.219Z,0.00
2019-03-26T01:26:32.210Z,0.00
2019-03-26T01:27:32.197Z,0.00
2019-03-26T01:28:32.191Z,0.00
2019-03-26T01:29:32.177Z,0.00
2019-03-26T01:30:32.171Z,0.00
2019-03-26T01:31:32.154Z,0.00
2019-03-26T01:32:32.147Z,0.00
2019-03-26T01:33:32.133Z,0.00
2019-03-26T01:34:45.258Z,0.00
2019-03-26T01:35:33.113Z,0.00
2019-03-26T01:36:32.104Z,0.00
2019-03-26T01:37:32.097Z,0.00
2019-03-26T01:38:32.084Z,0.00
2019-03-26T01:39:32.070Z,0.00
2019-03-26T01:40:32.063Z,0.00
2019-03-26T01:41:32.053Z,0.00
2019-03-26T01:42:32.038Z,0.00
2019-03-26T01:43:32.036Z,0.00
2019-03-26T01:44:32.015Z,0.00
2019-03-26T01:45:32.006Z,0.00
2019-03-26T01:46:31.994Z,0.00
2019-03-26T01:47:31.984Z,0.00
2019-03-26T01:48:31.985Z,0.00
2019-03-26T01:49:31.963Z,0.00
2019-03-26T01:50:31.951Z,0.00
2019-03-26T01:51:31.946Z,0.00
2019-03-26T01:52:31.934Z,0.00
2019-03-26T01:53:31.921Z,0.00
2019-03-26T01:54:31.909Z,0.00
2019-03-26T01:55:31.899Z,0.00
2019-03-26T01:56:31.894Z,0.00
2019-03-26T01:57:31.895Z,0.00
2019-03-26T01:58:31.878Z,0.00
2019-03-26T01:59:31.856Z,0.00
2019-03-26T02:00:31.848Z,0.00
2019-03-26T02:01:31.833Z,0.00
2019-03-26T02:02:31.828Z,0.00
2019-03-26T02:03:31.820Z,0.00
2019-03-26T02:04:31.802Z,0.00
2019-03-26T02:05:31.793Z,0.00
2019-03-26T02:06:31.781Z,0.00
2019-03-26T02:07:31.770Z,0.00
2019-03-26T02:08:31.763Z,0.00
2019-03-26T02:09:31.752Z,0.00
2019-03-26T02:10:31.741Z,0.00
2019-03-26T02:11:31.731Z,0.00
2019-03-26T02:12:31.722Z,0.00
2019-03-26T02:13:39.354Z,0.00
2019-03-26T02:14:31.699Z,0.00
2019-03-26T02:15:31.686Z,0.00
2019-03-26T02:16:31.678Z,0.00
2019-03-26T02:17:31.669Z,0.00
2019-03-26T02:18:31.656Z,0.00
2019-03-26T02:19:31.646Z,0.00
2019-03-26T02:20:31.636Z,0.00
2019-03-26T02:21:31.622Z,0.00
2019-03-26T02:22:31.613Z,0.00
2019-03-26T02:23:31.608Z,0.00
2019-03-26T02:24:31.592Z,0.00
2019-03-26T02:25:31.582Z,0.00
2019-03-26T02:26:31.569Z,0.00
2019-03-26T02:27:31.562Z,0.00
2019-03-26T02:28:31.558Z,0.00
2019-03-26T02:29:31.545Z,0.00
2019-03-26T02:30:31.531Z,0.00
2019-03-26T02:31:31.516Z,0.00
2019-03-26T02:32:31.508Z,0.00
2019-03-26T02:33:31.496Z,0.00
2019-03-26T02:34:31.487Z,0.00
2019-03-26T02:35:31.474Z,0.00
2019-03-26T02:36:31.466Z,0.00
2019-03-26T02:37:31.454Z,0.00
2019-03-26T02:38:31.449Z,0.00
2019-03-26T02:39:31.432Z,0.00
2019-03-26T02:40:31.432Z,0.00
2019-03-26T02:41:31.414Z,0.00
2019-03-26T02:42:31.402Z,0.00
2019-03-26T02:43:31.392Z,0.00
2019-03-26T02:44:31.383Z,0.00
2019-03-26T02:45:31.370Z,0.00
2019-03-26T02:46:31.359Z,0.00
2019-03-26T02:47:31.348Z,0.00
2019-03-26T02:48:31.353Z,0.00
2019-03-26T02:49:31.324Z,0.00
2019-03-26T02:50:31.325Z,0.00
2019-03-26T02:51:31.304Z,0.00
2019-03-26T02:52:31.371Z,0.00
2019-03-26T02:53:31.283Z,0.00
2019-03-26T02:54:31.334Z,0.00
2019-03-26T02:55:31.263Z,0.00
2019-03-26T02:56:31.252Z,0.00
2019-03-26T02:57:31.242Z,0.00
2019-03-26T02:58:31.238Z,0.00
2019-03-26T02:59:31.221Z,0.00
2019-03-26T03:00:31.215Z,0.00
2019-03-26T03:01:31.197Z,0.00
2019-03-26T03:02:31.199Z,0.00
2019-03-26T03:03:31.185Z,0.00
2019-03-26T03:04:31.178Z,0.00
2019-03-26T03:05:35.470Z,0.00
2019-03-26T03:06:31.146Z,0.00
2019-03-26T03:07:31.136Z,0.00
2019-03-26T03:08:31.139Z,0.00
2019-03-26T03:09:31.112Z,0.00
2019-03-26T03:10:31.107Z,0.00
2019-03-26T03:11:31.092Z,0.00
2019-03-26T03:12:31.096Z,0.00
2019-03-26T03:13:31.072Z,0.00
2019-03-26T03:14:31.061Z,0.00
2019-03-26T03:15:31.053Z,0.00
2019-03-26T03:16:31.045Z,0.00
2019-03-26T03:17:31.029Z,0.00
2019-03-26T03:18:31.018Z,0.00
2019-03-26T03:19:31.007Z,0.00
2019-03-26T03:20:30.996Z,0.00
2019-03-26T03:21:30.986Z,0.00
2019-03-26T03:22:30.981Z,0.00
2019-03-26T03:23:30.967Z,0.00
2019-03-26T03:24:30.982Z,0.00
2019-03-26T03:25:30.944Z,0.00
2019-03-26T03:26:30.932Z,0.00
2019-03-26T03:27:30.924Z,0.00
2019-03-26T03:28:30.913Z,0.00
2019-03-26T03:29:30.904Z,0.00
2019-03-26T03:30:30.890Z,0.00
2019-03-26T03:31:30.885Z,0.00
2019-03-26T03:32:31.047Z,0.00
2019-03-26T03:33:30.860Z,0.00
2019-03-26T03:34:30.858Z,0.00
2019-03-26T03:35:30.838Z,0.00
2019-03-26T03:36:30.826Z,0.00
2019-03-26T03:37:30.816Z,0.00
2019-03-26T03:38:30.804Z,0.00
2019-03-26T03:39:30.793Z,0.00
2019-03-26T03:40:30.785Z,0.00
2019-03-26T03:41:30.774Z,0.00
2019-03-26T03:42:30.763Z,0.00
2019-03-26T03:43:30.756Z,0.00
2019-03-26T03:44:30.742Z,0.00
2019-03-26T03:45:30.754Z,0.00
2019-03-26T03:46:30.725Z,0.00
2019-03-26T03:47:30.714Z,0.00
2019-03-26T03:48:30.701Z,0.00
2019-03-26T03:49:30.693Z,0.00
2019-03-26T03:50:30.797Z,0.00
2019-03-26T03:51:30.668Z,0.00
2019-03-26T03:52:30.655Z,0.00
2019-03-26T03:53:30.644Z,0.00
2019-03-26T03:54:30.635Z,0.00
2019-03-26T03:55:30.633Z,0.00
2019-03-26T03:56:30.619Z,0.00
2019-03-26T03:57:30.603Z,0.00
2019-03-26T03:58:30.595Z,0.00
2019-03-26T03:59:30.586Z,0.00
2019-03-26T04:00:30.573Z,0.00
2019-03-26T04:01:30.564Z,0.00
2019-03-26T04:02:30.550Z,0.00
2019-03-26T04:03:30.549Z,0.00
2019-03-26T04:04:30.527Z,0.00
2019-03-26T04:05:30.529Z,0.00
2019-03-26T04:06:30.506Z,0.00
2019-03-26T04:07:30.510Z,0.00
2019-03-26T04:08:30.488Z,0.00
2019-03-26T04:09:30.479Z,0.00
2019-03-26T04:10:30.465Z,0.00
2019-03-26T04:11:30.453Z,0.00
2019-03-26T04:12:30.442Z,0.00
2019-03-26T04:13:30.434Z,0.00
2019-03-26T04:14:30.430Z,0.00
2019-03-26T04:15:34.570Z,0.00
2019-03-26T04:16:30.399Z,0.00
2019-03-26T04:17:30.392Z,0.00
2019-03-26T04:18:30.379Z,0.00
2019-03-26T04:19:30.369Z,0.00
2019-03-26T04:20:30.358Z,0.00
2019-03-26T04:21:30.347Z,0.00
2019-03-26T04:22:30.337Z,0.00
2019-03-26T04:23:30.326Z,0.00
2019-03-26T04:24:30.315Z,0.00
2019-03-26T04:25:30.303Z,0.00
2019-03-26T04:26:30.292Z,0.00
2019-03-26T04:27:30.290Z,0.00
2019-03-26T04:28:30.273Z,0.00
2019-03-26T04:29:30.264Z,0.00
2019-03-26T04:30:30.251Z,0.00
2019-03-26T04:31:30.242Z,0.00
2019-03-26T04:32:30.231Z,0.00
2019-03-26T04:33:30.219Z,0.00
2019-03-26T04:34:30.215Z,0.00
2019-03-26T04:35:30.204Z,0.00
2019-03-26T04:36:30.189Z,0.00
2019-03-26T04:37:30.179Z,0.00
2019-03-26T04:38:30.170Z,0.00
2019-03-26T04:39:30.154Z,0.00
2019-03-26T04:40:30.144Z,0.00
2019-03-26T04:41:30.135Z,0.00
2019-03-26T04:42:30.126Z,0.00
2019-03-26T04:43:30.114Z,0.00
2019-03-26T04:44:30.109Z,0.00
2019-03-26T04:45:30.091Z,0.00
2019-03-26T04:46:30.080Z,5.62
2019-03-26T04:47:30.073Z,5.62
2019-03-26T04:48:30.065Z,5.62
2019-03-26T04:49:30.055Z,5.62
2019-03-26T04:50:30.038Z,5.62
2019-03-26T04:51:30.027Z,5.62
2019-03-26T04:52:30.018Z,11.25
2019-03-26T04:53:30.008Z,11.25
2019-03-26T04:54:30.003Z,11.25
2019-03-26T04:55:29.988Z,11.25
2019-03-26T04:56:29.985Z,11.25
2019-03-26T04:57:29.964Z,16.88
2019-03-26T04:58:29.953Z,16.88
2019-03-26T04:59:29.942Z,16.88
2019-03-26T05:00:29.932Z,16.88
2019-03-26T05:01:29.924Z,22.50
2019-03-26T05:02:29.916Z,22.50
2019-03-26T05:03:29.900Z,22.50
2019-03-26T05:04:29.889Z,22.50
2019-03-26T05:05:29.879Z,22.50
2019-03-26T05:06:37.996Z,22.50
2019-03-26T05:07:30.857Z,22.50
2019-03-26T05:08:29.855Z,22.50
2019-03-26T05:09:29.835Z,22.50
2019-03-26T05:10:29.824Z,22.50
2019-03-26T05:11:29.816Z,22.50
2019-03-26T05:12:29.804Z,22.50
2019-03-26T05:13:29.794Z,28.12
2019-03-26T05:14:29.792Z,28.12
2019-03-26T05:15:29.771Z,28.12
2019-03-26T05:16:29.762Z,33.75
2019-03-26T05:17:29.756Z,33.75
2019-03-26T05:18:29.741Z,39.38
2019-03-26T05:19:29.751Z,33.75
2019-03-26T05:20:29.722Z,39.38
2019-03-26T05:21:29.710Z,39.38
2019-03-26T05:22:29.699Z,39.38
2019-03-26T05:23:29.696Z,39.38
2019-03-26T05:24:29.677Z,28.12
2019-03-26T05:25:29.747Z,28.12
2019-03-26T05:26:29.655Z,28.12
2019-03-26T05:27:29.646Z,28.12
2019-03-26T05:28:29.633Z,28.12
2019-03-26T05:29:29.623Z,28.12
2019-03-26T05:30:29.617Z,28.12
2019-03-26T05:31:29.601Z,28.12
2019-03-26T05:32:29.591Z,28.12
2019-03-26T05:33:29.583Z,33.75
2019-03-26T05:34:29.573Z,33.75
2019-03-26T05:35:29.559Z,28.12
2019-03-26T05:36:29.558Z,33.75
2019-03-26T05:37:29.539Z,39.38
2019-03-26T05:38:29.534Z,33.75
2019-03-26T05:39:29.517Z,33.75
2019-03-26T05:40:29.506Z,33.75
2019-03-26T05:41:29.500Z,33.75
2019-03-26T05:42:29.495Z,33.75
2019-03-26T05:43:29.475Z,33.75
2019-03-26T05:44:29.465Z,39.38
2019-03-26T05:45:29.455Z,33.75
2019-03-26T05:46:29.454Z,39.38
2019-03-26T05:47:29.434Z,39.38
2019-03-26T05:48:29.502Z,33.75
2019-03-26T05:49:29.412Z,33.75
2019-03-26T05:50:29.400Z,33.75
2019-03-26T05:51:29.390Z,33.75
2019-03-26T05:52:29.379Z,33.75
2019-03-26T05:53:29.397Z,33.75
2019-03-26T05:54:29.357Z,28.12
2019-03-26T05:55:29.354Z,33.75
2019-03-26T05:56:30.562Z,28.12
2019-03-26T05:57:29.324Z,33.75
2019-03-26T05:58:29.324Z,28.12
2019-03-26T05:59:29.304Z,33.75
2019-03-26T06:00:29.294Z,28.12
2019-03-26T06:01:29.289Z,28.12
2019-03-26T06:02:29.272Z,28.12
2019-03-26T06:03:29.261Z,28.12
2019-03-26T06:04:29.259Z,28.12
2019-03-26T06:05:29.238Z,33.75
2019-03-26T06:06:29.229Z,39.38
2019-03-26T06:07:31.314Z,33.75
2019-03-26T06:08:29.208Z,33.75
2019-03-26T06:09:29.199Z,28.12
2019-03-26T06:10:29.187Z,28.12
2019-03-26T06:11:29.175Z,39.38
2019-03-26T06:12:29.164Z,33.75
2019-03-26T06:13:29.154Z,33.75
2019-03-26T06:14:29.142Z,39.38
2019-03-26T06:15:29.135Z,45.00
2019-03-26T06:16:38.401Z,45.00
2019-03-26T06:17:30.122Z,61.88
2019-03-26T06:18:29.100Z,67.50
2019-03-26T06:19:29.091Z,78.75
2019-03-26T06:20:29.080Z,84.38
2019-03-26T06:21:29.069Z,90.00
2019-03-26T06:22:29.073Z,101.25
2019-03-26T06:23:29.048Z,135.00
2019-03-26T06:24:29.036Z,129.38
2019-03-26T06:25:29.057Z,129.38
2019-03-26T06:26:29.020Z,135.00
2019-03-26T06:27:29.009Z,112.50
2019-03-26T06:28:28.993Z,106.88
2019-03-26T06:29:28.983Z,118.12
2019-03-26T06:30:28.973Z,146.25
2019-03-26T06:31:28.968Z,129.38
2019-03-26T06:32:28.952Z,168.75
2019-03-26T06:33:28.940Z,191.25
2019-03-26T06:34:28.929Z,213.75
2019-03-26T06:35:28.920Z,208.12
2019-03-26T06:36:28.908Z,247.50
2019-03-26T06:37:28.896Z,208.12
2019-03-26T06:38:28.888Z,270.00
2019-03-26T06:39:28.874Z,270.00
2019-03-26T06:40:28.864Z,286.88
2019-03-26T06:41:28.857Z,315.00
2019-03-26T06:42:28.844Z,365.62
2019-03-26T06:43:28.832Z,416.25
2019-03-26T06:44:28.837Z,466.88
2019-03-26T06:45:28.812Z,405.00
2019-03-26T06:46:28.804Z,303.75
2019-03-26T06:47:28.790Z,416.25
2019-03-26T06:48:28.787Z,472.50
2019-03-26T06:49:28.771Z,410.62
2019-03-26T06:50:28.760Z,354.38
2019-03-26T06:51:28.748Z,331.88
2019-03-26T06:52:28.741Z,309.38
2019-03-26T06:53:28.725Z,286.88
2019-03-26T06:54:28.716Z,264.38
2019-03-26T06:55:28.707Z,219.38
2019-03-26T06:56:28.693Z,241.88
2019-03-26T06:57:35.354Z,286.88
2019-03-26T06:58:29.670Z,264.38
2019-03-26T06:59:28.665Z,309.38
2019-03-26T07:00:28.655Z,337.50
2019-03-26T07:01:28.645Z,315.00
2019-03-26T07:02:28.629Z,292.50
2019-03-26T07:03:28.621Z,241.88
2019-03-26T07:04:28.688Z,275.62
2019-03-26T07:05:28.598Z,281.25
2019-03-26T07:06:28.586Z,286.88
2019-03-26T07:07:31.847Z,241.88
2019-03-26T07:08:28.564Z,275.62
2019-03-26T07:09:28.552Z,286.88
2019-03-26T07:10:28.543Z,275.62
2019-03-26T07:11:28.532Z,281.25
2019-03-26T07:12:28.522Z,286.88
2019-03-26T07:13:28.510Z,247.50
2019-03-26T07:14:28.499Z,309.38
2019-03-26T07:15:28.490Z,343.12
2019-03-26T07:16:28.479Z,320.62
2019-03-26T07:17:29.370Z,337.50
2019-03-26T07:18:28.456Z,286.88
2019-03-26T07:19:28.446Z,320.62
2019-03-26T07:20:28.435Z,303.75
2019-03-26T07:21:28.424Z,286.88
2019-03-26T07:22:28.415Z,264.38
2019-03-26T07:23:28.409Z,270.00
2019-03-26T07:24:28.391Z,264.38
2019-03-26T07:25:28.380Z,286.88
2019-03-26T07:26:28.370Z,292.50
2019-03-26T07:27:28.359Z,303.75
2019-03-26T07:28:28.350Z,241.88
2019-03-26T07:29:28.338Z,275.62
2019-03-26T07:30:28.327Z,292.50
2019-03-26T07:31:28.317Z,225.00
2019-03-26T07:32:28.306Z,298.12
2019-03-26T07:33:28.296Z,326.25
2019-03-26T07:34:28.284Z,236.25
2019-03-26T07:35:28.273Z,241.88
2019-03-26T07:36:28.263Z,253.12
2019-03-26T07:37:28.251Z,264.38
2019-03-26T07:38:28.241Z,298.12
2019-03-26T07:39:28.229Z,219.38
2019-03-26T07:40:28.221Z,253.12
2019-03-26T07:41:28.208Z,354.38
2019-03-26T07:42:28.197Z,579.38
2019-03-26T07:43:28.186Z,1333.12
2019-03-26T07:44:28.176Z,1248.75
2019-03-26T07:45:28.165Z,1170.00
2019-03-26T07:46:28.154Z,1209.38
2019-03-26T07:47:28.145Z,1091.25
2019-03-26T07:48:28.132Z,961.88
2019-03-26T07:49:28.121Z,883.12
2019-03-26T07:50:28.176Z,798.75
2019-03-26T07:51:28.100Z,1096.88
2019-03-26T07:52:28.092Z,1113.75
2019-03-26T07:53:28.078Z,894.38
2019-03-26T07:54:28.066Z,1125.00
2019-03-26T07:55:28.056Z,1305.00
2019-03-26T07:56:28.047Z,883.12
2019-03-26T07:57:28.034Z,1181.25
2019-03-26T07:58:28.034Z,877.50
2019-03-26T07:59:28.015Z,1468.12
2019-03-26T08:00:28.002Z,613.12
2019-03-26T08:01:27.992Z,1395.00
2019-03-26T08:02:27.982Z,1929.38
2019-03-26T08:03:27.972Z,2992.50
2019-03-26T08:04:27.958Z,1012.50
2019-03-26T08:05:29.864Z,1383.75
2019-03-26T08:06:27.940Z,798.75
2019-03-26T08:07:27.929Z,691.88
2019-03-26T08:08:27.915Z,804.38
2019-03-26T08:09:29.117Z,832.50
2019-03-26T08:10:27.896Z,455.62
2019-03-26T08:11:27.889Z,826.88
2019-03-26T08:12:27.873Z,2671.88
2019-03-26T08:13:27.889Z,916.88
2019-03-26T08:14:27.851Z,1873.12
2019-03-26T08:15:27.852Z,2598.75
2019-03-26T08:16:27.829Z,1991.25
2019-03-26T08:17:27.838Z,1186.88
2019-03-26T08:18:27.805Z,995.62
2019-03-26T08:19:27.797Z,961.88
2019-03-26T08:20:27.788Z,1288.12
2019-03-26T08:21:27.783Z,1856.25
2019-03-26T08:22:27.763Z,1147.50
2019-03-26T08:23:27.753Z,1226.25
2019-03-26T08:24:27.742Z,1625.62
2019-03-26T08:25:27.731Z,2705.62
2019-03-26T08:26:27.720Z,1890.00
2019-03-26T08:27:27.713Z,1558.12
2019-03-26T08:28:27.698Z,2525.62
2019-03-26T08:29:27.687Z,1378.12
2019-03-26T08:30:27.676Z,4387.50
2019-03-26T08:31:27.668Z,3217.50
2019-03-26T08:32:27.654Z,3217.50
2019-03-26T08:33:27.643Z,1833.75
2019-03-26T08:34:27.633Z,2250.00
2019-03-26T08:35:27.622Z,4488.75
2019-03-26T08:36:27.610Z,4376.25
2019-03-26T08:37:27.605Z,4179.38
2019-03-26T08:38:27.588Z,4016.25
2019-03-26T08:39:27.577Z,3988.12
2019-03-26T08:40:27.567Z,3678.75
2019-03-26T08:41:27.555Z,4483.12
2019-03-26T08:42:27.547Z,4528.12
2019-03-26T08:43:27.534Z,4573.12
2019-03-26T08:44:27.523Z,1136.25
2019-03-26T08:45:27.514Z,5056.88
2019-03-26T08:46:27.501Z,4753.12
2019-03-26T08:47:27.493Z,4809.38
2019-03-26T08:48:27.482Z,742.50
2019-03-26T08:49:30.758Z,495.00
2019-03-26T08:50:27.543Z,489.38
2019-03-26T08:51:27.447Z,540.00
2019-03-26T08:52:27.437Z,500.62
2019-03-26T08:53:27.425Z,601.88
2019-03-26T08:54:27.415Z,652.50
2019-03-26T08:55:27.404Z,697.50
2019-03-26T08:56:27.393Z,804.38
2019-03-26T08:57:27.383Z,1209.38
2019-03-26T08:58:27.371Z,1046.25
2019-03-26T08:59:27.362Z,725.62
2019-03-26T09:00:27.351Z,613.12
2019-03-26T09:01:27.341Z,579.38
2019-03-26T09:02:27.328Z,770.62
2019-03-26T09:03:27.318Z,810.00
2019-03-26T09:04:27.307Z,652.50
2019-03-26T09:05:27.295Z,607.50
2019-03-26T09:06:27.290Z,506.25
2019-03-26T09:07:27.274Z,618.75
2019-03-26T09:08:27.262Z,956.25
2019-03-26T09:09:27.251Z,4528.12
2019-03-26T09:10:27.241Z,5506.88
2019-03-26T09:11:27.229Z,1625.62
2019-03-26T09:12:27.219Z,1012.50
2019-03-26T09:13:27.213Z,900.00
2019-03-26T09:14:27.202Z,1170.00
2019-03-26T09:15:27.192Z,1473.75
2019-03-26T09:16:27.176Z,1929.38
2019-03-26T09:17:27.166Z,1940.62
2019-03-26T09:18:27.153Z,1473.75
2019-03-26T09:19:27.144Z,1603.12
2019-03-26T09:20:27.132Z,1558.12
2019-03-26T09:21:27.121Z,1974.38
2019-03-26T09:22:27.113Z,2857.50
2019-03-26T09:23:27.100Z,1108.12
2019-03-26T09:24:27.089Z,652.50
2019-03-26T09:25:27.080Z,556.88
2019-03-26T09:26:27.069Z,551.25
2019-03-26T09:27:27.056Z,478.12
2019-03-26T09:28:27.048Z,393.75
2019-03-26T09:29:27.036Z,354.38
2019-03-26T09:30:27.025Z,292.50
2019-03-26T09:31:27.019Z,326.25
2019-03-26T09:32:27.001Z,421.88
2019-03-26T09:33:26.994Z,511.88
2019-03-26T09:34:26.979Z,545.62
2019-03-26T09:35:26.968Z,461.25
2019-03-26T09:36:26.957Z,365.62
2019-03-26T09:37:26.947Z,337.50
2019-03-26T09:38:38.337Z,388.12
2019-03-26T09:39:27.926Z,461.25
2019-03-26T09:40:26.915Z,658.12
2019-03-26T09:41:26.998Z,877.50
2019-03-26T09:42:26.893Z,1130.62
2019-03-26T09:43:26.886Z,1395.00
2019-03-26T09:44:26.872Z,1423.12
2019-03-26T09:45:26.862Z,1119.38
2019-03-26T09:46:26.852Z,939.38
2019-03-26T09:47:26.844Z,838.12
2019-03-26T09:48:26.832Z,798.75
2019-03-26T09:49:26.819Z,798.75
2019-03-26T09:50:26.806Z,798.75
2019-03-26T09:51:26.795Z,832.50
2019-03-26T09:52:26.785Z,894.38
2019-03-26T09:53:26.772Z,905.62
2019-03-26T09:54:26.762Z,815.62
2019-03-26T09:55:26.750Z,770.62
2019-03-26T09:56:30.608Z,815.62
2019-03-26T09:57:27.729Z,770.62
2019-03-26T09:58:26.717Z,714.38
2019-03-26T09:59:26.706Z,703.12
2019-03-26T10:00:26.737Z,697.50
2019-03-26T10:01:26.684Z,551.25
2019-03-26T10:02:26.678Z,461.25
2019-03-26T10:03:26.662Z,444.38
2019-03-26T10:04:26.652Z,511.88
2019-03-26T10:05:26.640Z,517.50
2019-03-26T10:06:26.631Z,461.25
2019-03-26T10:07:26.617Z,399.38
2019-03-26T10:08:26.611Z,348.75
2019-03-26T10:09:26.597Z,303.75
2019-03-26T10:10:26.586Z,309.38
2019-03-26T10:11:26.575Z,309.38
2019-03-26T10:12:26.565Z,292.50
2019-03-26T10:13:26.555Z,337.50
2019-03-26T10:14:26.543Z,393.75
2019-03-26T10:15:26.532Z,450.00
2019-03-26T10:16:26.524Z,714.38
2019-03-26T10:17:26.513Z,1305.00
2019-03-26T10:18:26.500Z,1141.88
2019-03-26T10:19:26.493Z,1473.75
2019-03-26T10:20:26.478Z,1901.25
2019-03-26T10:21:26.468Z,1406.25
2019-03-26T10:22:26.456Z,1181.25
2019-03-26T10:23:26.446Z,1006.88
2019-03-26T10:24:26.434Z,871.88
2019-03-26T10:25:26.424Z,753.75
2019-03-26T10:26:26.413Z,675.00
2019-03-26T10:27:26.402Z,691.88
2019-03-26T10:28:26.389Z,669.38
2019-03-26T10:29:30.566Z,663.75
2019-03-26T10:30:26.371Z,590.62
2019-03-26T10:31:26.358Z,590.62
2019-03-26T10:32:26.347Z,618.75
2019-03-26T10:33:26.337Z,556.88
2019-03-26T10:34:26.328Z,540.00
2019-03-26T10:35:26.316Z,528.75
2019-03-26T10:36:26.304Z,624.38
2019-03-26T10:37:26.294Z,776.25
2019-03-26T10:38:26.282Z,781.88
2019-03-26T10:39:26.272Z,675.00
2019-03-26T10:40:26.260Z,579.38
2019-03-26T10:41:26.251Z,680.62
2019-03-26T10:42:26.239Z,826.88
2019-03-26T10:43:26.229Z,883.12
2019-03-26T10:44:26.217Z,832.50
2019-03-26T10:45:26.207Z,894.38
2019-03-26T10:46:26.196Z,3228.75
2019-03-26T10:47:26.189Z,1113.75
2019-03-26T10:48:26.175Z,579.38
2019-03-26T10:49:26.164Z,388.12
2019-03-26T10:50:26.164Z,388.12
2019-03-26T10:51:26.141Z,753.75
2019-03-26T10:52:26.134Z,1440.00
2019-03-26T10:53:26.122Z,1946.25
2019-03-26T10:54:26.111Z,1316.25
2019-03-26T10:55:26.098Z,1125.00
2019-03-26T10:56:26.089Z,1012.50
2019-03-26T10:57:26.082Z,916.88
2019-03-26T10:58:26.071Z,990.00
2019-03-26T10:59:26.056Z,1085.62
2019-03-26T11:00:26.043Z,888.75
2019-03-26T11:01:26.031Z,641.25
2019-03-26T11:02:26.025Z,596.25
2019-03-26T11:03:26.012Z,776.25
2019-03-26T11:04:26.010Z,1012.50
2019-03-26T11:05:25.988Z,1029.38
2019-03-26T11:06:25.978Z,1018.12
2019-03-26T11:07:25.967Z,978.75
2019-03-26T11:08:25.955Z,1029.38
2019-03-26T11:09:27.322Z,843.75
2019-03-26T11:10:25.937Z,883.12
2019-03-26T11:11:25.923Z,1001.25
2019-03-26T11:12:25.913Z,1237.50
2019-03-26T11:13:25.900Z,1231.88
2019-03-26T11:14:25.892Z,945.00
2019-03-26T11:15:25.881Z,1012.50
2019-03-26T11:16:25.867Z,1766.25
2019-03-26T11:17:25.858Z,1046.25
2019-03-26T11:18:25.847Z,793.12
2019-03-26T11:19:25.834Z,815.62
2019-03-26T11:20:25.825Z,1091.25
2019-03-26T11:21:25.814Z,1265.62
2019-03-26T11:22:25.801Z,1243.12
2019-03-26T11:23:25.790Z,1057.50
2019-03-26T11:24:25.782Z,838.12
2019-03-26T11:25:25.770Z,742.50
2019-03-26T11:26:25.757Z,748.12
2019-03-26T11:27:25.748Z,686.25
2019-03-26T11:28:25.736Z,556.88
2019-03-26T11:29:25.726Z,540.00
2019-03-26T11:30:25.715Z,455.62
2019-03-26T11:31:25.704Z,427.50
2019-03-26T11:32:25.695Z,517.50
2019-03-26T11:33:25.681Z,568.12
2019-03-26T11:34:25.728Z,624.38
2019-03-26T11:35:25.659Z,607.50
2019-03-26T11:36:25.651Z,725.62
2019-03-26T11:37:25.659Z,855.00
2019-03-26T11:38:25.628Z,826.88
2019-03-26T11:39:32.767Z,742.50
2019-03-26T11:40:26.604Z,607.50
2019-03-26T11:41:25.594Z,450.00
2019-03-26T11:42:25.582Z,315.00
2019-03-26T11:43:25.573Z,236.25
2019-03-26T11:44:25.563Z,213.75
2019-03-26T11:45:25.550Z,230.62
2019-03-26T11:46:25.540Z,258.75
2019-03-26T11:47:25.528Z,281.25
2019-03-26T11:48:25.518Z,326.25
2019-03-26T11:49:25.505Z,337.50
2019-03-26T11:50:25.498Z,286.88
2019-03-26T11:51:25.485Z,264.38
2019-03-26T11:52:25.473Z,281.25
2019-03-26T11:53:25.463Z,298.12
2019-03-26T11:54:25.454Z,303.75
2019-03-26T11:55:25.441Z,315.00
2019-03-26T11:56:25.430Z,360.00
2019-03-26T11:57:25.419Z,337.50
2019-03-26T11:58:30.832Z,331.88
2019-03-26T11:59:26.397Z,376.88
2019-03-26T12:00:25.386Z,371.25
2019-03-26T12:01:25.600Z,388.12
2019-03-26T12:02:25.468Z,466.88
2019-03-26T12:03:25.354Z,466.88
2019-03-26T12:04:25.359Z,331.88
2019-03-26T12:05:25.331Z,286.88
2019-03-26T12:06:25.322Z,275.62
2019-03-26T12:07:25.312Z,298.12
2019-03-26T12:08:25.300Z,275.62
2019-03-26T12:09:25.291Z,236.25
2019-03-26T12:10:25.279Z,213.75
2019-03-26T12:11:25.266Z,225.00
2019-03-26T12:12:25.260Z,236.25
2019-03-26T12:13:25.245Z,208.12
2019-03-26T12:14:25.235Z,185.62
2019-03-26T12:15:25.224Z,213.75
2019-03-26T12:16:25.214Z,258.75
2019-03-26T12:17:25.201Z,286.88
2019-03-26T12:18:25.194Z,303.75
2019-03-26T12:19:25.180Z,326.25
2019-03-26T12:20:25.171Z,360.00
2019-03-26T12:21:25.159Z,348.75
2019-03-26T12:22:25.161Z,331.88
2019-03-26T12:23:25.137Z,337.50
2019-03-26T12:24:25.127Z,399.38
2019-03-26T12:25:25.118Z,371.25
2019-03-26T12:26:25.189Z,343.12
2019-03-26T12:27:25.094Z,298.12
2019-03-26T12:28:25.083Z,258.75
2019-03-26T12:29:25.073Z,225.00
2019-03-26T12:30:25.062Z,208.12
2019-03-26T12:31:25.057Z,213.75
2019-03-26T12:32:25.042Z,213.75
2019-03-26T12:33:25.028Z,213.75
2019-03-26T12:34:25.017Z,236.25
2019-03-26T12:35:25.007Z,303.75
2019-03-26T12:36:24.997Z,450.00
2019-03-26T12:37:24.986Z,596.25
2019-03-26T12:38:24.976Z,562.50
2019-03-26T12:39:24.964Z,489.38
2019-03-26T12:40:24.953Z,399.38
2019-03-26T12:41:24.943Z,461.25
2019-03-26T12:42:24.931Z,343.12
2019-03-26T12:43:24.924Z,247.50
2019-03-26T12:44:24.910Z,309.38
2019-03-26T12:45:24.899Z,421.88
2019-03-26T12:46:24.889Z,534.38